sensor_id;sensor_type;location;lat;lon;timestamp;pressure;altitude;pressure_sealevel;temperature;humidity
24390;BME280;12510;56.468;-3.004;2023-05-27T00:02:07;101984.44;;;16.44;100.00
24390;BME280;12510;56.468;-3.004;2023-05-27T00:04:33;101982.72;;;16.52;100.00
24390;BME280;12510;56.468;-3.004;2023-05-27T00:07:00;101994.81;;;16.37;100.00
24390;BME280;12510;56.468;-3.004;2023-05-27T00:09:26;101979.13;;;16.34;100.00
24390;BME280;12510;56.468;-3.004;2023-05-27T00:11:53;101971.56;;;16.39;100.00
24390;BME280;12510;56.468;-3.004;2023-05-27T00:14:19;101967.66;;;16.33;100.00
24390;BME280;12510;56.468;-3.004;2023-05-27T00:16:48;101970.88;;;16.27;100.00
24390;BME280;12510;56.468;-3.004;2023-05-27T00:19:15;101973.38;;;16.19;100.00
24390;BME280;12510;56.468;-3.004;2023-05-27T00:21:43;101974.09;;;16.31;100.00
24390;BME280;12510;56.468;-3.004;2023-05-27T00:24:10;101971.69;;;16.18;100.00
24390;BME280;12510;56.468;-3.004;2023-05-27T00:26:36;101968.22;;;16.17;100.00
24390;BME280;12510;56.468;-3.004;2023-05-27T00:29:05;101966.25;;;16.09;100.00
24390;BME280;12510;56.468;-3.004;2023-05-27T00:31:31;101963.47;;;15.91;100.00
24390;BME280;12510;56.468;-3.004;2023-05-27T00:33:57;101953.81;;;16.10;100.00
24390;BME280;12510;56.468;-3.004;2023-05-27T00:36:24;101955.06;;;16.06;100.00
24390;BME280;12510;56.468;-3.004;2023-05-27T00:38:50;101950.47;;;15.98;100.00
24390;BME280;12510;56.468;-3.004;2023-05-27T00:41:17;101943.34;;;15.89;100.00
24390;BME280;12510;56.468;-3.004;2023-05-27T00:43:44;101948.34;;;15.92;100.00
24390;BME280;12510;56.468;-3.004;2023-05-27T00:46:11;101949.06;;;15.94;100.00
24390;BME280;12510;56.468;-3.004;2023-05-27T00:48:37;101943.03;;;16.02;100.00
24390;BME280;12510;56.468;-3.004;2023-05-27T00:51:04;101939.13;;;16.06;100.00
24390;BME280;12510;56.468;-3.004;2023-05-27T00:53:36;101933.25;;;16.02;100.00
24390;BME280;12510;56.468;-3.004;2023-05-27T00:56:05;101931.41;;;16.32;100.00
24390;BME280;12510;56.468;-3.004;2023-05-27T00:58:32;101926.25;;;16.31;100.00
24390;BME280;12510;56.468;-3.004;2023-05-27T01:00:59;101923.31;;;16.24;100.00
24390;BME280;12510;56.468;-3.004;2023-05-27T01:03:27;101920.09;;;16.20;100.00
24390;BME280;12510;56.468;-3.004;2023-05-27T01:06:01;101923.03;;;16.17;100.00
24390;BME280;12510;56.468;-3.004;2023-05-27T01:08:35;101910.31;;;16.01;100.00
24390;BME280;12510;56.468;-3.004;2023-05-27T01:11:05;101906.13;;;16.18;100.00
24390;BME280;12510;56.468;-3.004;2023-05-27T01:13:42;101903.16;;;16.31;100.00
24390;BME280;12510;56.468;-3.004;2023-05-27T01:16:13;101902.41;;;16.49;100.00
24390;BME280;12510;56.468;-3.004;2023-05-27T01:18:45;101913.75;;;16.51;100.00
24390;BME280;12510;56.468;-3.004;2023-05-27T01:21:17;101910.38;;;16.58;100.00
24390;BME280;12510;56.468;-3.004;2023-05-27T01:23:48;101904.72;;;16.71;100.00
24390;BME280;12510;56.468;-3.004;2023-05-27T01:26:15;101910.19;;;16.70;100.00
24390;BME280;12510;56.468;-3.004;2023-05-27T01:28:42;101899.75;;;16.86;100.00
24390;BME280;12510;56.468;-3.004;2023-05-27T01:31:19;101893.28;;;16.89;100.00
24390;BME280;12510;56.468;-3.004;2023-05-27T01:33:59;101892.22;;;16.82;100.00
24390;BME280;12510;56.468;-3.004;2023-05-27T01:36:30;101898.00;;;16.67;100.00
24390;BME280;12510;56.468;-3.004;2023-05-27T01:38:58;101901.13;;;16.63;100.00
24390;BME280;12510;56.468;-3.004;2023-05-27T01:41:27;101891.41;;;16.71;100.00
24390;BME280;12510;56.468;-3.004;2023-05-27T01:43:54;101889.09;;;16.49;100.00
24390;BME280;12510;56.468;-3.004;2023-05-27T01:46:21;101887.72;;;16.45;100.00
24390;BME280;12510;56.468;-3.004;2023-05-27T01:48:47;101888.53;;;16.55;100.00
24390;BME280;12510;56.468;-3.004;2023-05-27T01:51:14;101873.28;;;16.57;100.00
24390;BME280;12510;56.468;-3.004;2023-05-27T01:53:40;101878.00;;;16.63;100.00
24390;BME280;12510;56.468;-3.004;2023-05-27T01:56:07;101868.34;;;16.72;100.00
24390;BME280;12510;56.468;-3.004;2023-05-27T01:58:34;101865.13;;;16.68;100.00
24390;BME280;12510;56.468;-3.004;2023-05-27T02:01:00;101864.19;;;16.50;100.00
24390;BME280;12510;56.468;-3.004;2023-05-27T02:03:26;101860.50;;;16.70;100.00
24390;BME280;12510;56.468;-3.004;2023-05-27T02:05:53;101851.81;;;16.68;100.00
24390;BME280;12510;56.468;-3.004;2023-05-27T02:08:19;101842.47;;;16.64;100.00
24390;BME280;12510;56.468;-3.004;2023-05-27T02:10:46;101842.63;;;16.53;100.00
24390;BME280;12510;56.468;-3.004;2023-05-27T02:13:12;101848.84;;;16.34;100.00
24390;BME280;12510;56.468;-3.004;2023-05-27T02:15:40;101847.22;;;16.23;100.00
24390;BME280;12510;56.468;-3.004;2023-05-27T02:18:07;101842.97;;;16.40;100.00
24390;BME280;12510;56.468;-3.004;2023-05-27T02:20:35;101840.47;;;16.29;100.00
24390;BME280;12510;56.468;-3.004;2023-05-27T02:23:07;101834.13;;;16.39;100.00
24390;BME280;12510;56.468;-3.004;2023-05-27T02:25:34;101829.91;;;16.09;100.00
24390;BME280;12510;56.468;-3.004;2023-05-27T02:28:00;101825.13;;;16.22;100.00
24390;BME280;12510;56.468;-3.004;2023-05-27T02:30:29;101826.13;;;16.02;100.00
24390;BME280;12510;56.468;-3.004;2023-05-27T02:32:57;101822.38;;;15.95;100.00
24390;BME280;12510;56.468;-3.004;2023-05-27T02:35:24;101814.56;;;15.93;100.00
24390;BME280;12510;56.468;-3.004;2023-05-27T02:37:52;101817.78;;;15.87;100.00
24390;BME280;12510;56.468;-3.004;2023-05-27T02:40:27;101812.75;;;15.84;100.00
24390;BME280;12510;56.468;-3.004;2023-05-27T02:42:55;101809.53;;;15.51;100.00
24390;BME280;12510;56.468;-3.004;2023-05-27T02:45:22;101809.78;;;15.28;100.00
24390;BME280;12510;56.468;-3.004;2023-05-27T02:47:50;101808.69;;;15.40;100.00
24390;BME280;12510;56.468;-3.004;2023-05-27T02:50:17;101808.97;;;15.47;100.00
24390;BME280;12510;56.468;-3.004;2023-05-27T02:52:43;101805.63;;;15.35;100.00
24390;BME280;12510;56.468;-3.004;2023-05-27T02:55:10;101804.94;;;15.53;100.00
24390;BME280;12510;56.468;-3.004;2023-05-27T02:57:36;101802.53;;;15.40;100.00
24390;BME280;12510;56.468;-3.004;2023-05-27T03:00:04;101794.72;;;15.29;100.00
24390;BME280;12510;56.468;-3.004;2023-05-27T03:02:32;101795.81;;;15.16;100.00
24390;BME280;12510;56.468;-3.004;2023-05-27T03:04:58;101788.00;;;15.15;100.00
24390;BME280;12510;56.468;-3.004;2023-05-27T03:07:27;101791.34;;;15.36;100.00
24390;BME280;12510;56.468;-3.004;2023-05-27T03:09:57;101788.13;;;15.23;100.00
24390;BME280;12510;56.468;-3.004;2023-05-27T03:12:24;101786.63;;;15.20;100.00
24390;BME280;12510;56.468;-3.004;2023-05-27T03:14:51;101781.28;;;15.11;100.00
24390;BME280;12510;56.468;-3.004;2023-05-27T03:17:19;101775.72;;;15.14;100.00
24390;BME280;12510;56.468;-3.004;2023-05-27T03:19:46;101766.47;;;14.98;100.00
24390;BME280;12510;56.468;-3.004;2023-05-27T03:22:13;101782.25;;;15.00;100.00
24390;BME280;12510;56.468;-3.004;2023-05-27T03:24:41;101766.47;;;14.88;100.00
24390;BME280;12510;56.468;-3.004;2023-05-27T03:27:07;101764.06;;;14.85;100.00
24390;BME280;12510;56.468;-3.004;2023-05-27T03:29:37;101767.25;;;14.69;100.00
24390;BME280;12510;56.468;-3.004;2023-05-27T03:32:04;101761.75;;;15.02;100.00
24390;BME280;12510;56.468;-3.004;2023-05-27T03:34:32;101764.09;;;14.95;100.00
24390;BME280;12510;56.468;-3.004;2023-05-27T03:36:58;101765.63;;;14.88;100.00
24390;BME280;12510;56.468;-3.004;2023-05-27T03:39:40;101751.91;;;14.83;100.00
24390;BME280;12510;56.468;-3.004;2023-05-27T03:42:06;101744.81;;;14.83;100.00
24390;BME280;12510;56.468;-3.004;2023-05-27T03:44:33;101748.59;;;14.81;100.00
24390;BME280;12510;56.468;-3.004;2023-05-27T03:47:02;101749.13;;;14.74;100.00
24390;BME280;12510;56.468;-3.004;2023-05-27T03:49:28;101749.09;;;14.65;100.00
24390;BME280;12510;56.468;-3.004;2023-05-27T03:51:56;101742.03;;;14.75;100.00
24390;BME280;12510;56.468;-3.004;2023-05-27T03:54:23;101733.22;;;14.74;100.00
24390;BME280;12510;56.468;-3.004;2023-05-27T03:56:50;101736.59;;;14.96;100.00
24390;BME280;12510;56.468;-3.004;2023-05-27T03:59:17;101737.25;;;14.69;100.00
24390;BME280;12510;56.468;-3.004;2023-05-27T04:01:44;101728.09;;;14.52;100.00
24390;BME280;12510;56.468;-3.004;2023-05-27T04:04:10;101728.53;;;14.57;100.00
24390;BME280;12510;56.468;-3.004;2023-05-27T04:06:37;101726.47;;;14.61;100.00
24390;BME280;12510;56.468;-3.004;2023-05-27T04:09:03;101728.75;;;14.75;100.00
24390;BME280;12510;56.468;-3.004;2023-05-27T04:11:30;101729.47;;;15.06;100.00
24390;BME280;12510;56.468;-3.004;2023-05-27T04:13:57;101728.38;;;14.99;100.00
24390;BME280;12510;56.468;-3.004;2023-05-27T04:16:23;101734.25;;;15.13;100.00
24390;BME280;12510;56.468;-3.004;2023-05-27T04:18:51;101729.50;;;14.97;100.00
24390;BME280;12510;56.468;-3.004;2023-05-27T04:21:18;101714.69;;;15.14;100.00
24390;BME280;12510;56.468;-3.004;2023-05-27T04:23:45;101721.13;;;15.21;100.00
24390;BME280;12510;56.468;-3.004;2023-05-27T04:26:12;101730.59;;;14.94;100.00
24390;BME280;12510;56.468;-3.004;2023-05-27T04:28:42;101723.91;;;14.80;100.00
24390;BME280;12510;56.468;-3.004;2023-05-27T04:31:12;101721.53;;;14.87;100.00
24390;BME280;12510;56.468;-3.004;2023-05-27T04:33:43;101715.78;;;15.31;100.00
24390;BME280;12510;56.468;-3.004;2023-05-27T04:36:11;101711.47;;;16.06;100.00
24390;BME280;12510;56.468;-3.004;2023-05-27T04:38:54;101710.84;;;15.85;100.00
24390;BME280;12510;56.468;-3.004;2023-05-27T04:41:20;101716.63;;;15.21;100.00
24390;BME280;12510;56.468;-3.004;2023-05-27T04:44:09;101713.84;;;15.33;100.00
24390;BME280;12510;56.468;-3.004;2023-05-27T04:46:44;101717.00;;;15.66;100.00
24390;BME280;12510;56.468;-3.004;2023-05-27T04:49:11;101713.69;;;15.54;100.00
24390;BME280;12510;56.468;-3.004;2023-05-27T04:51:38;101714.06;;;15.59;100.00
24390;BME280;12510;56.468;-3.004;2023-05-27T04:54:06;101715.53;;;15.34;100.00
24390;BME280;12510;56.468;-3.004;2023-05-27T04:56:34;101721.53;;;15.06;100.00
24390;BME280;12510;56.468;-3.004;2023-05-27T04:59:02;101714.75;;;15.90;100.00
24390;BME280;12510;56.468;-3.004;2023-05-27T05:01:33;101715.59;;;15.62;100.00
24390;BME280;12510;56.468;-3.004;2023-05-27T05:04:23;101707.63;;;15.62;100.00
24390;BME280;12510;56.468;-3.004;2023-05-27T05:06:54;101706.97;;;15.59;100.00
24390;BME280;12510;56.468;-3.004;2023-05-27T05:09:22;101706.47;;;15.17;100.00
24390;BME280;12510;56.468;-3.004;2023-05-27T05:11:50;101697.59;;;15.46;100.00
24390;BME280;12510;56.468;-3.004;2023-05-27T05:14:16;101699.38;;;15.84;100.00
24390;BME280;12510;56.468;-3.004;2023-05-27T05:16:44;101703.31;;;15.70;100.00
24390;BME280;12510;56.468;-3.004;2023-05-27T05:19:10;101701.66;;;15.50;100.00
24390;BME280;12510;56.468;-3.004;2023-05-27T05:21:39;101700.50;;;15.82;100.00
24390;BME280;12510;56.468;-3.004;2023-05-27T05:24:08;101696.19;;;15.61;100.00
24390;BME280;12510;56.468;-3.004;2023-05-27T05:26:35;101697.88;;;15.62;100.00
24390;BME280;12510;56.468;-3.004;2023-05-27T05:29:03;101702.13;;;15.92;100.00
24390;BME280;12510;56.468;-3.004;2023-05-27T05:31:30;101699.69;;;15.62;100.00
24390;BME280;12510;56.468;-3.004;2023-05-27T05:33:57;101708.84;;;15.97;100.00
24390;BME280;12510;56.468;-3.004;2023-05-27T05:36:25;101699.41;;;16.40;100.00
24390;BME280;12510;56.468;-3.004;2023-05-27T05:38:59;101708.47;;;16.47;100.00
24390;BME280;12510;56.468;-3.004;2023-05-27T05:41:26;101706.44;;;16.31;100.00
24390;BME280;12510;56.468;-3.004;2023-05-27T05:43:53;101703.94;;;16.57;100.00
24390;BME280;12510;56.468;-3.004;2023-05-27T05:46:19;101689.09;;;16.37;100.00
24390;BME280;12510;56.468;-3.004;2023-05-27T05:48:46;101689.09;;;16.37;100.00
24390;BME280;12510;56.468;-3.004;2023-05-27T05:51:17;101694.91;;;16.68;100.00
24390;BME280;12510;56.468;-3.004;2023-05-27T05:53:46;101691.44;;;16.40;100.00
24390;BME280;12510;56.468;-3.004;2023-05-27T05:56:13;101680.22;;;16.64;100.00
24390;BME280;12510;56.468;-3.004;2023-05-27T05:58:40;101683.66;;;16.74;100.00
24390;BME280;12510;56.468;-3.004;2023-05-27T06:01:07;101678.19;;;16.76;100.00
24390;BME280;12510;56.468;-3.004;2023-05-27T06:03:39;101680.47;;;16.89;100.00
24390;BME280;12510;56.468;-3.004;2023-05-27T06:06:08;101673.47;;;17.24;100.00
24390;BME280;12510;56.468;-3.004;2023-05-27T06:08:48;101657.03;;;17.29;100.00
24390;BME280;12510;56.468;-3.004;2023-05-27T06:11:16;101671.25;;;16.83;100.00
24390;BME280;12510;56.468;-3.004;2023-05-27T06:13:44;101666.13;;;17.70;100.00
24390;BME280;12510;56.468;-3.004;2023-05-27T06:16:13;101661.38;;;17.90;100.00
24390;BME280;12510;56.468;-3.004;2023-05-27T06:18:39;101658.28;;;17.69;100.00
24390;BME280;12510;56.468;-3.004;2023-05-27T06:21:06;101662.94;;;17.40;100.00
24390;BME280;12510;56.468;-3.004;2023-05-27T06:23:52;101657.47;;;17.68;100.00
24390;BME280;12510;56.468;-3.004;2023-05-27T06:26:19;101658.38;;;17.33;100.00
24390;BME280;12510;56.468;-3.004;2023-05-27T06:28:50;101654.59;;;17.35;100.00
24390;BME280;12510;56.468;-3.004;2023-05-27T06:31:16;101656.16;;;17.02;100.00
24390;BME280;12510;56.468;-3.004;2023-05-27T06:33:43;101658.00;;;17.46;100.00
24390;BME280;12510;56.468;-3.004;2023-05-27T06:36:09;101654.59;;;17.96;100.00
24390;BME280;12510;56.468;-3.004;2023-05-27T06:38:39;101632.81;;;19.26;100.00
24390;BME280;12510;56.468;-3.004;2023-05-27T06:41:05;101626.06;;;20.11;100.00
24390;BME280;12510;56.468;-3.004;2023-05-27T06:43:33;101613.31;;;20.68;100.00
24390;BME280;12510;56.468;-3.004;2023-05-27T06:46:20;101594.00;;;21.79;100.00
24390;BME280;12510;56.468;-3.004;2023-05-27T06:48:54;101585.44;;;22.05;100.00
24390;BME280;12510;56.468;-3.004;2023-05-27T06:51:21;101590.50;;;22.15;100.00
24390;BME280;12510;56.468;-3.004;2023-05-27T06:53:49;101585.19;;;22.21;100.00
24390;BME280;12510;56.468;-3.004;2023-05-27T06:56:21;101556.47;;;22.87;97.74
24390;BME280;12510;56.468;-3.004;2023-05-27T06:59:06;101554.97;;;22.13;97.97
24390;BME280;12510;56.468;-3.004;2023-05-27T07:01:32;101561.66;;;23.17;95.13
24390;BME280;12510;56.468;-3.004;2023-05-27T07:04:01;101554.88;;;22.92;94.53
24390;BME280;12510;56.468;-3.004;2023-05-27T07:06:54;101537.25;;;23.60;90.52
24390;BME280;12510;56.468;-3.004;2023-05-27T07:09:21;101540.09;;;23.45;82.78
24390;BME280;12510;56.468;-3.004;2023-05-27T07:11:47;101540.81;;;23.19;84.43
24390;BME280;12510;56.468;-3.004;2023-05-27T07:14:34;101542.06;;;23.23;83.35
24390;BME280;12510;56.468;-3.004;2023-05-27T07:17:00;101522.13;;;24.14;74.55
24390;BME280;12510;56.468;-3.004;2023-05-27T07:19:27;101529.44;;;23.72;79.44
24390;BME280;12510;56.468;-3.004;2023-05-27T07:21:58;101504.34;;;24.47;69.75
24390;BME280;12510;56.468;-3.004;2023-05-27T07:24:26;101516.25;;;23.84;74.34
24390;BME280;12510;56.468;-3.004;2023-05-27T07:26:55;101511.75;;;24.11;71.42
24390;BME280;12510;56.468;-3.004;2023-05-27T07:29:23;101509.31;;;24.30;72.87
24390;BME280;12510;56.468;-3.004;2023-05-27T07:31:53;101505.16;;;24.27;70.65
24390;BME280;12510;56.468;-3.004;2023-05-27T07:34:25;101491.25;;;24.97;65.99
24390;BME280;12510;56.468;-3.004;2023-05-27T07:36:52;101481.06;;;24.99;63.57
24390;BME280;12510;56.468;-3.004;2023-05-27T07:39:18;101500.94;;;23.84;69.01
24390;BME280;12510;56.468;-3.004;2023-05-27T07:41:45;101481.81;;;25.26;61.92
24390;BME280;12510;56.468;-3.004;2023-05-27T07:44:12;101478.63;;;24.91;63.94
24390;BME280;12510;56.468;-3.004;2023-05-27T07:46:38;101474.56;;;25.27;62.35
24390;BME280;12510;56.468;-3.004;2023-05-27T07:49:06;101472.50;;;25.36;64.42
24390;BME280;12510;56.468;-3.004;2023-05-27T07:51:36;101480.13;;;24.33;65.94
24390;BME280;12510;56.468;-3.004;2023-05-27T07:54:03;101468.31;;;25.33;62.21
24390;BME280;12510;56.468;-3.004;2023-05-27T07:56:30;101460.75;;;25.87;59.02
24390;BME280;12510;56.468;-3.004;2023-05-27T07:58:57;101471.81;;;24.75;62.46
24390;BME280;12510;56.468;-3.004;2023-05-27T08:01:23;101487.28;;;23.79;70.52
24390;BME280;12510;56.468;-3.004;2023-05-27T08:03:54;101486.25;;;23.25;71.97
24390;BME280;12510;56.468;-3.004;2023-05-27T08:06:52;101478.56;;;23.70;71.31
24390;BME280;12510;56.468;-3.004;2023-05-27T08:09:28;101461.47;;;24.52;70.27
24390;BME280;12510;56.468;-3.004;2023-05-27T08:12:03;101451.28;;;25.39;63.79
24390;BME280;12510;56.468;-3.004;2023-05-27T08:14:55;101471.38;;;23.91;72.35
24390;BME280;12510;56.468;-3.004;2023-05-27T08:17:40;101442.03;;;25.22;63.65
24390;BME280;12510;56.468;-3.004;2023-05-27T08:20:09;101437.78;;;25.46;64.21
24390;BME280;12510;56.468;-3.004;2023-05-27T08:22:51;101451.31;;;23.25;72.80
24390;BME280;12510;56.468;-3.004;2023-05-27T08:25:20;101453.53;;;23.70;74.02
24390;BME280;12510;56.468;-3.004;2023-05-27T08:28:01;101463.91;;;23.18;79.58
24390;BME280;12510;56.468;-3.004;2023-05-27T08:31:00;101461.16;;;22.69;83.69
24390;BME280;12510;56.468;-3.004;2023-05-27T08:33:39;101457.81;;;22.39;81.92
24390;BME280;12510;56.468;-3.004;2023-05-27T08:36:06;101470.66;;;22.00;89.18
24390;BME280;12510;56.468;-3.004;2023-05-27T08:38:33;101473.41;;;21.64;92.00
24390;BME280;12510;56.468;-3.004;2023-05-27T08:41:15;101486.19;;;21.17;100.00
24390;BME280;12510;56.468;-3.004;2023-05-27T08:43:43;101489.69;;;21.17;100.00
24390;BME280;12510;56.468;-3.004;2023-05-27T08:46:10;101478.06;;;21.76;98.59
24390;BME280;12510;56.468;-3.004;2023-05-27T08:48:37;101473.75;;;20.94;100.00
24390;BME280;12510;56.468;-3.004;2023-05-27T08:51:05;101467.81;;;22.30;95.87
24390;BME280;12510;56.468;-3.004;2023-05-27T08:53:32;101449.38;;;23.05;87.19
24390;BME280;12510;56.468;-3.004;2023-05-27T08:56:00;101452.47;;;23.64;83.61
24390;BME280;12510;56.468;-3.004;2023-05-27T08:58:30;101431.50;;;25.14;76.22
24390;BME280;12510;56.468;-3.004;2023-05-27T09:00:57;101423.25;;;24.95;73.69
24390;BME280;12510;56.468;-3.004;2023-05-27T09:03:25;101428.66;;;25.79;73.00
24390;BME280;12510;56.468;-3.004;2023-05-27T09:05:55;101425.09;;;26.10;70.22
24390;BME280;12510;56.468;-3.004;2023-05-27T09:08:21;101425.25;;;25.58;68.42
24390;BME280;12510;56.468;-3.004;2023-05-27T09:10:49;101428.31;;;25.69;71.50
24390;BME280;12510;56.468;-3.004;2023-05-27T09:13:25;101427.00;;;24.94;73.22
24390;BME280;12510;56.468;-3.004;2023-05-27T09:16:03;101420.06;;;24.53;78.11
24390;BME280;12510;56.468;-3.004;2023-05-27T09:18:35;101424.22;;;24.62;78.61
24390;BME280;12510;56.468;-3.004;2023-05-27T09:21:02;101443.00;;;22.78;84.50
24390;BME280;12510;56.468;-3.004;2023-05-27T09:23:29;101441.50;;;23.52;84.92
24390;BME280;12510;56.468;-3.004;2023-05-27T09:25:55;101438.81;;;23.52;87.17
24390;BME280;12510;56.468;-3.004;2023-05-27T09:28:23;101433.59;;;23.37;87.74
24390;BME280;12510;56.468;-3.004;2023-05-27T09:31:07;101426.69;;;23.15;83.92
24390;BME280;12510;56.468;-3.004;2023-05-27T09:33:42;101438.22;;;23.08;89.20
24390;BME280;12510;56.468;-3.004;2023-05-27T09:36:08;101443.19;;;23.12;94.13
24390;BME280;12510;56.468;-3.004;2023-05-27T09:38:36;101427.59;;;23.35;90.88
24390;BME280;12510;56.468;-3.004;2023-05-27T09:41:02;101439.13;;;22.87;92.68
24390;BME280;12510;56.468;-3.004;2023-05-27T09:43:29;101442.22;;;22.84;92.45
24390;BME280;12510;56.468;-3.004;2023-05-27T09:46:11;101419.66;;;24.22;83.90
24390;BME280;12510;56.468;-3.004;2023-05-27T09:48:38;101428.72;;;23.81;85.14
24390;BME280;12510;56.468;-3.004;2023-05-27T09:51:05;101428.50;;;23.63;85.65
24390;BME280;12510;56.468;-3.004;2023-05-27T09:53:33;101431.69;;;24.06;82.42
24390;BME280;12510;56.468;-3.004;2023-05-27T09:56:01;101429.38;;;24.43;82.99
24390;BME280;12510;56.468;-3.004;2023-05-27T09:58:28;101444.66;;;24.83;92.42
24390;BME280;12510;56.468;-3.004;2023-05-27T10:00:55;101404.78;;;25.51;78.09
24390;BME280;12510;56.468;-3.004;2023-05-27T10:03:22;101419.84;;;23.87;85.22
24390;BME280;12510;56.468;-3.004;2023-05-27T10:05:50;101405.66;;;23.32;84.75
24390;BME280;12510;56.468;-3.004;2023-05-27T10:08:18;101427.50;;;24.57;87.57
24390;BME280;12510;56.468;-3.004;2023-05-27T10:10:45;101404.75;;;25.12;76.79
24390;BME280;12510;56.468;-3.004;2023-05-27T10:13:14;101406.00;;;24.24;79.15
24390;BME280;12510;56.468;-3.004;2023-05-27T10:15:46;101415.31;;;24.28;79.98
24390;BME280;12510;56.468;-3.004;2023-05-27T10:18:26;101401.13;;;24.86;78.44
24390;BME280;12510;56.468;-3.004;2023-05-27T10:20:53;101386.66;;;24.60;76.50
24390;BME280;12510;56.468;-3.004;2023-05-27T10:23:24;101404.84;;;23.31;84.37
24390;BME280;12510;56.468;-3.004;2023-05-27T10:25:53;101399.34;;;23.86;84.70
24390;BME280;12510;56.468;-3.004;2023-05-27T10:28:27;101403.94;;;24.39;83.43
24390;BME280;12510;56.468;-3.004;2023-05-27T10:31:06;101404.94;;;23.65;87.50
24390;BME280;12510;56.468;-3.004;2023-05-27T10:33:37;101407.38;;;23.53;87.37
24390;BME280;12510;56.468;-3.004;2023-05-27T10:36:06;101417.19;;;21.92;98.69
24390;BME280;12510;56.468;-3.004;2023-05-27T10:38:35;101407.41;;;23.04;94.55
24390;BME280;12510;56.468;-3.004;2023-05-27T10:41:03;101414.25;;;22.15;96.75
24390;BME280;12510;56.468;-3.004;2023-05-27T10:43:30;101398.75;;;23.09;96.04
24390;BME280;12510;56.468;-3.004;2023-05-27T10:46:12;101394.81;;;23.12;94.77
24390;BME280;12510;56.468;-3.004;2023-05-27T10:48:39;101382.16;;;22.92;93.07
24390;BME280;12510;56.468;-3.004;2023-05-27T10:51:06;101371.78;;;23.37;91.75
24390;BME280;12510;56.468;-3.004;2023-05-27T10:53:34;101364.19;;;24.15;87.34
24390;BME280;12510;56.468;-3.004;2023-05-27T10:56:02;101363.94;;;23.49;88.85
24390;BME280;12510;56.468;-3.004;2023-05-27T10:58:28;101357.28;;;23.25;85.30
24390;BME280;12510;56.468;-3.004;2023-05-27T11:00:56;101351.97;;;24.19;81.79
24390;BME280;12510;56.468;-3.004;2023-05-27T11:03:25;101355.31;;;24.21;86.52
24390;BME280;12510;56.468;-3.004;2023-05-27T11:06:03;101319.13;;;25.46;68.23
24390;BME280;12510;56.468;-3.004;2023-05-27T11:08:34;101315.72;;;24.28;68.26
24390;BME280;12510;56.468;-3.004;2023-05-27T11:11:08;101322.81;;;23.69;69.90
24390;BME280;12510;56.468;-3.004;2023-05-27T11:16:03;101326.41;;;25.46;72.49
24390;BME280;12510;56.468;-3.004;2023-05-27T11:18:47;101323.28;;;24.71;74.00
24390;BME280;12510;56.468;-3.004;2023-05-27T11:21:15;101310.53;;;24.40;68.99
24390;BME280;12510;56.468;-3.004;2023-05-27T11:23:46;101314.50;;;24.24;66.33
24390;BME280;12510;56.468;-3.004;2023-05-27T11:26:20;101303.75;;;24.83;62.96
24390;BME280;12510;56.468;-3.004;2023-05-27T11:28:56;101303.53;;;24.84;63.34
24390;BME280;12510;56.468;-3.004;2023-05-27T11:31:30;101310.84;;;24.77;59.93
24390;BME280;12510;56.468;-3.004;2023-05-27T11:33:59;101288.63;;;25.20;57.73
24390;BME280;12510;56.468;-3.004;2023-05-27T11:36:27;101292.38;;;25.13;57.32
24390;BME280;12510;56.468;-3.004;2023-05-27T11:38:57;101289.38;;;25.27;57.10
24390;BME280;12510;56.468;-3.004;2023-05-27T11:41:29;101303.06;;;25.26;57.36
24390;BME280;12510;56.468;-3.004;2023-05-27T11:44:06;101304.41;;;23.86;62.77
24390;BME280;12510;56.468;-3.004;2023-05-27T11:46:42;101304.78;;;23.22;61.44
24390;BME280;12510;56.468;-3.004;2023-05-27T12:26:37;101357.75;;;23.62;65.60
24390;BME280;12510;56.468;-3.004;2023-05-27T12:29:09;101337.91;;;23.56;62.45
24390;BME280;12510;56.468;-3.004;2023-05-27T12:31:52;101361.97;;;23.09;66.12
24390;BME280;12510;56.468;-3.004;2023-05-27T12:34:20;101356.69;;;23.30;67.79
24390;BME280;12510;56.468;-3.004;2023-05-27T12:36:48;101350.72;;;23.48;68.66
24390;BME280;12510;56.468;-3.004;2023-05-27T12:39:16;101340.94;;;24.47;63.05
24390;BME280;12510;56.468;-3.004;2023-05-27T12:41:43;101328.19;;;24.22;60.18
24390;BME280;12510;56.468;-3.004;2023-05-27T12:44:16;101350.72;;;23.81;62.17
24390;BME280;12510;56.468;-3.004;2023-05-27T12:46:46;101363.53;;;23.32;64.30
24390;BME280;12510;56.468;-3.004;2023-05-27T12:49:15;101360.69;;;23.74;60.84
24390;BME280;12510;56.468;-3.004;2023-05-27T12:51:41;101361.44;;;23.27;61.44
24390;BME280;12510;56.468;-3.004;2023-05-27T12:54:08;101365.44;;;24.05;60.46
24390;BME280;12510;56.468;-3.004;2023-05-27T12:56:39;101369.91;;;23.31;62.08
24390;BME280;12510;56.468;-3.004;2023-05-27T12:59:09;101354.09;;;23.90;60.19
24390;BME280;12510;56.468;-3.004;2023-05-27T13:01:35;101371.16;;;23.35;61.65
24390;BME280;12510;56.468;-3.004;2023-05-27T13:04:02;101365.41;;;23.72;62.26
24390;BME280;12510;56.468;-3.004;2023-05-27T13:06:29;101348.28;;;24.13;61.39
24390;BME280;12510;56.468;-3.004;2023-05-27T13:08:57;101361.09;;;24.04;60.65
24390;BME280;12510;56.468;-3.004;2023-05-27T13:11:29;101364.38;;;23.59;61.18
24390;BME280;12510;56.468;-3.004;2023-05-27T13:13:57;101353.03;;;23.91;59.40
24390;BME280;12510;56.468;-3.004;2023-05-27T13:16:26;101354.41;;;23.33;60.63
24390;BME280;12510;56.468;-3.004;2023-05-27T13:18:56;101359.81;;;23.67;63.04
24390;BME280;12510;56.468;-3.004;2023-05-27T13:21:23;101366.47;;;23.02;65.73
24390;BME280;12510;56.468;-3.004;2023-05-27T13:23:55;101364.53;;;22.41;68.61
24390;BME280;12510;56.468;-3.004;2023-05-27T13:26:23;101358.31;;;22.75;69.30
24390;BME280;12510;56.468;-3.004;2023-05-27T13:28:51;101381.00;;;23.90;72.67